Time;durP1;ratioP1;P1;durP2;ratioP2;P2;SDS_P1;SDS_P2;PMS_P1;PMS_P2;Temp;Humidity;BMP_temperature;BMP_pressure;BME280_temperature;BME280_humidity;BME280_pressure;Samples;Min_cycle;Max_cycle;Signal;HPM_P1;HPM_P2
2023/04/05 04:00:37;;;;;;;0.90;0.50;;;-0.40;99.90;;;;;;5765243;23;20235;-72
2023/04/05 04:03:04;;;;;;;0.90;0.85;;;-0.40;99.90;;;;;;4913108;29;20210;-70
2023/04/05 04:05:31;;;;;;;1.10;1.00;;;-0.40;99.90;;;;;;4913888;29;20320;-69
2023/04/05 04:07:58;;;;;;;0.20;0.20;;;-0.40;99.90;;;;;;4913742;29;20254;-70
2023/04/05 04:10:25;;;;;;;1.13;1.13;;;-0.40;99.90;;;;;;4915495;29;20203;-69
2023/04/05 04:12:52;;;;;;;0.40;0.40;;;-0.40;99.90;;;;;;4915192;29;20225;-69
2023/04/05 04:15:19;;;;;;;0.40;0.40;;;-0.40;99.90;;;;;;4912673;29;20213;-69
2023/04/05 04:17:47;;;;;;;0.93;0.40;;;-0.40;99.90;;;;;;4904854;29;20234;-70
2023/04/05 04:20:14;;;;;;;0.73;0.40;;;-0.40;99.90;;;;;;4907437;29;20554;-69
2023/04/05 04:22:40;;;;;;;0.93;0.85;;;-0.50;99.90;;;;;;4914537;29;20210;-71
2023/04/05 04:25:09;;;;;;;0.47;0.47;;;-0.50;99.90;;;;;;4914644;29;20297;-70
2023/04/05 04:27:39;;;;;;;0.40;0.40;;;-0.50;99.90;;;;;;4911258;29;20202;-69
2023/04/05 04:30:09;;;;;;;2.55;1.42;;;-0.50;99.90;;;;;;4907137;29;20230;-69
2023/04/05 04:32:53;;;;;;;0.60;0.60;;;-0.50;99.90;;;;;;4914384;29;20709;-69
2023/04/05 04:35:24;;;;;;;0.30;0.30;;;-0.50;99.90;;;;;;4914393;29;20242;-69
2023/04/05 04:37:57;;;;;;;0.20;0.20;;;-0.50;99.90;;;;;;4914266;29;20226;-69
2023/04/05 04:40:25;;;;;;;0.30;0.30;;;-0.50;99.90;;;;;;4896794;29;20233;-70
2023/04/05 04:42:53;;;;;;;0.65;0.65;;;-0.50;99.90;;;;;;4902647;29;20202;-69
2023/04/05 04:45:20;;;;;;;0.30;0.30;;;-0.50;99.90;;;;;;4895692;29;20211;-70
2023/04/05 04:47:51;;;;;;;0.57;0.57;;;-0.50;99.90;;;;;;4895528;29;20203;-69
2023/04/05 04:50:18;;;;;;;0.30;0.30;;;-0.50;99.90;;;;;;4896911;29;20218;-70
2023/04/05 04:52:47;;;;;;;0.10;0.10;;;-0.50;99.90;;;;;;4895708;29;20217;-71
2023/04/05 04:55:14;;;;;;;0.50;0.50;;;-0.50;99.90;;;;;;4901829;29;20215;-70
2023/04/05 04:57:41;;;;;;;0.73;0.73;;;-0.50;99.90;;;;;;4908927;29;20664;-70
2023/04/05 05:00:11;;;;;;;1.83;1.75;;;-0.50;99.90;;;;;;4914175;29;20218;-70
2023/04/05 05:02:38;;;;;;;1.27;1.27;;;-0.50;99.90;;;;;;4914307;29;20325;-68
2023/04/05 05:05:06;;;;;;;0.98;0.98;;;-0.50;99.90;;;;;;4914581;29;20222;-69
2023/04/05 05:07:33;;;;;;;0.50;0.50;;;-0.50;99.90;;;;;;4912376;29;20210;-70
2023/04/05 05:10:01;;;;;;;0.40;0.40;;;-0.50;99.90;;;;;;4904802;29;20215;-72
2023/04/05 05:12:28;;;;;;;1.65;0.75;;;-0.50;99.90;;;;;;4895485;29;20249;-72
2023/04/05 05:14:55;;;;;;;0.63;0.63;;;-0.40;99.90;;;;;;4895085;29;20220;-69
2023/04/05 05:17:23;;;;;;;0.82;0.80;;;-0.40;99.90;;;;;;4895257;29;20222;-72
2023/04/05 05:19:50;;;;;;;3.05;2.05;;;-0.30;99.90;;;;;;4895665;29;20227;-69
2023/04/05 05:22:17;;;;;;;0.73;0.73;;;-0.30;99.90;;;;;;4894801;29;20708;-69
2023/04/05 05:24:44;;;;;;;1.10;1.10;;;-0.30;99.90;;;;;;4892945;29;20949;-70
2023/04/05 05:27:12;;;;;;;1.23;1.23;;;-0.30;99.90;;;;;;4903103;29;20222;-70
2023/04/05 05:29:39;;;;;;;2.35;2.15;;;-0.20;99.90;;;;;;4914810;29;20217;-69
2023/04/05 05:32:06;;;;;;;1.38;0.77;;;-0.10;99.90;;;;;;4913976;29;20231;-69
2023/04/05 05:34:33;;;;;;;2.40;1.35;;;0.00;99.90;;;;;;4914298;29;20237;-70
2023/04/05 05:37:00;;;;;;;0.20;0.20;;;0.00;99.90;;;;;;4907916;29;20207;-70
2023/04/05 05:39:27;;;;;;;1.42;0.85;;;0.00;99.90;;;;;;4897157;29;20230;-70
2023/04/05 05:41:53;;;;;;;2.47;1.27;;;0.00;99.90;;;;;;4906808;29;20222;-70
2023/04/05 05:44:21;;;;;;;1.55;1.50;;;0.00;99.90;;;;;;4914100;29;20225;-70
2023/04/05 05:46:48;;;;;;;1.80;1.73;;;0.00;99.90;;;;;;4915144;29;20218;-70
2023/04/05 05:49:15;;;;;;;17.65;1.27;;;0.00;99.90;;;;;;4914380;29;20207;-71
2023/04/05 05:51:41;;;;;;;2.17;1.00;;;0.00;99.90;;;;;;4914122;29;20234;-70
2023/04/05 05:54:08;;;;;;;1.75;1.15;;;0.00;99.90;;;;;;4910273;29;20206;-69
2023/04/05 05:56:35;;;;;;;1.50;1.40;;;0.00;99.90;;;;;;4907932;29;20240;-70
2023/04/05 05:59:01;;;;;;;0.28;0.28;;;0.00;99.90;;;;;;4914575;29;20279;-72
2023/04/05 06:01:29;;;;;;;2.05;1.35;;;0.10;99.90;;;;;;4905843;29;20234;-70
2023/04/05 06:03:56;;;;;;;0.98;0.88;;;0.10;99.90;;;;;;4905720;29;20263;-70
2023/04/05 06:06:23;;;;;;;1.40;0.73;;;0.20;99.90;;;;;;4912708;29;20329;-71
2023/04/05 06:08:50;;;;;;;13.07;2.28;;;0.20;99.90;;;;;;4903079;29;20207;-70
2023/04/05 06:11:20;;;;;;;1.98;1.83;;;0.30;99.90;;;;;;4914698;29;20235;-70
2023/04/05 06:13:47;;;;;;;0.38;0.38;;;0.30;99.90;;;;;;4912841;29;20222;-69
2023/04/05 06:16:13;;;;;;;0.40;0.40;;;0.30;99.90;;;;;;4907734;29;20207;-73
2023/04/05 06:18:42;;;;;;;3.83;1.55;;;0.30;99.90;;;;;;4917154;29;20238;-69
2023/04/05 06:21:08;;;;;;;1.17;1.05;;;0.40;99.90;;;;;;4917178;29;20237;-70
2023/04/05 06:23:35;;;;;;;1.23;1.23;;;0.40;99.90;;;;;;4908488;29;20211;-70
2023/04/05 06:26:02;;;;;;;1.52;1.42;;;0.50;99.90;;;;;;4909831;29;20215;-70
2023/04/05 06:28:29;;;;;;;1.25;1.25;;;0.60;99.90;;;;;;4917463;29;20210;-70
2023/04/05 06:30:58;;;;;;;1.17;0.65;;;0.70;99.90;;;;;;4917421;29;20230;-69
2023/04/05 06:33:25;;;;;;;1.00;1.00;;;0.70;99.90;;;;;;4916438;29;20312;-69
2023/04/05 06:35:53;;;;;;;1.15;1.15;;;0.80;99.90;;;;;;4917538;29;20230;-70
2023/04/05 06:38:20;;;;;;;2.08;1.98;;;0.90;99.90;;;;;;4911879;29;20233;-70
2023/04/05 06:40:46;;;;;;;0.43;0.43;;;1.00;99.90;;;;;;4903706;29;20235;-70
2023/04/05 06:43:13;;;;;;;0.77;0.77;;;1.10;99.90;;;;;;4908921;29;20207;-69
2023/04/05 06:45:40;;;;;;;0.77;0.73;;;1.20;99.90;;;;;;4917255;29;20327;-70
2023/04/05 06:48:07;;;;;;;0.40;0.40;;;1.20;99.90;;;;;;4916857;29;20210;-70
2023/04/05 06:50:34;;;;;;;1.13;1.13;;;1.20;99.90;;;;;;4917254;29;20768;-70
2023/04/05 06:53:03;;;;;;;0.85;0.85;;;1.20;99.90;;;;;;4907314;29;20221;-70
2023/04/05 06:55:30;;;;;;;1.77;1.67;;;1.30;99.90;;;;;;4909844;29;20829;-70
2023/04/05 06:57:57;;;;;;;1.60;1.58;;;1.30;99.90;;;;;;4917119;29;20233;-69
2023/04/05 07:00:24;;;;;;;1.50;1.45;;;1.40;99.90;;;;;;4916870;29;20234;-72
2023/04/05 07:02:50;;;;;;;0.50;0.50;;;1.40;99.90;;;;;;4916542;29;20672;-69
2023/04/05 07:05:18;;;;;;;1.42;0.98;;;1.50;99.90;;;;;;4914238;29;20214;-69
2023/04/05 07:07:47;;;;;;;1.23;1.23;;;1.60;99.90;;;;;;4908484;29;20213;-69
2023/04/05 07:10:15;;;;;;;1.10;1.05;;;1.70;99.90;;;;;;4916447;29;20203;-69
2023/04/05 07:12:42;;;;;;;1.23;1.13;;;1.80;99.90;;;;;;4915076;29;20293;-70
2023/04/05 07:15:10;;;;;;;3.28;1.05;;;1.80;99.90;;;;;;4908046;29;20206;-70
2023/04/05 07:17:36;;;;;;;0.95;0.95;;;1.90;99.90;;;;;;4915980;29;20297;-68
2023/04/05 07:20:06;;;;;;;7.25;1.15;;;2.00;99.90;;;;;;4916555;29;20231;-69
2023/04/05 07:22:34;;;;;;;1.20;1.20;;;2.10;99.90;;;;;;4906783;29;20731;-69
2023/04/05 07:25:01;;;;;;;0.40;0.40;;;2.20;99.90;;;;;;4911962;29;20239;-69
2023/04/05 07:27:29;;;;;;;1.77;1.25;;;2.30;99.90;;;;;;4916432;29;20226;-69
2023/04/05 07:29:56;;;;;;;0.40;0.40;;;2.40;99.90;;;;;;4916318;29;20211;-69
2023/04/05 07:32:23;;;;;;;7.30;1.23;;;2.50;99.90;;;;;;4916021;29;20243;-69
2023/04/05 07:34:50;;;;;;;0.65;0.65;;;2.70;99.90;;;;;;4914627;29;20233;-69
2023/04/05 07:37:16;;;;;;;1.88;1.85;;;2.80;99.90;;;;;;4899141;29;20295;-69
2023/04/05 07:39:43;;;;;;;0.85;0.63;;;2.90;99.90;;;;;;4901737;29;20239;-68
2023/04/05 07:42:10;;;;;;;1.13;1.13;;;3.00;99.90;;;;;;4895662;29;20329;-68
2023/04/05 07:44:38;;;;;;;1.20;1.20;;;3.10;99.90;;;;;;4902703;29;20211;-69
2023/04/05 07:47:04;;;;;;;0.73;0.73;;;3.20;99.90;;;;;;4913344;29;20211;-69
2023/04/05 07:49:31;;;;;;;5.63;1.17;;;3.30;99.90;;;;;;4916409;29;20675;-69
2023/04/05 07:51:58;;;;;;;1.95;0.60;;;3.40;99.90;;;;;;4915685;29;20230;-70
2023/04/05 07:54:25;;;;;;;0.60;0.60;;;3.50;99.90;;;;;;4915497;29;20218;-70
2023/04/05 07:56:54;;;;;;;0.68;0.68;;;3.70;99.90;;;;;;4911503;29;20682;-68
2023/04/05 07:59:20;;;;;;;0.75;0.75;;;3.80;99.90;;;;;;4907861;29;20318;-69
2023/04/05 08:01:49;;;;;;;0.30;0.30;;;4.00;99.90;;;;;;4915917;29;20241;-69
2023/04/05 08:04:15;;;;;;;0.88;0.85;;;4.10;99.90;;;;;;4914979;29;20664;-69
2023/04/05 08:06:43;;;;;;;1.38;0.82;;;4.30;99.90;;;;;;4915469;29;20210;-69
2023/04/05 08:09:10;;;;;;;1.40;1.30;;;4.40;99.90;;;;;;4914687;29;20230;-69
2023/04/05 08:11:37;;;;;;;4.28;3.85;;;4.40;99.90;;;;;;4898615;29;20230;-69
2023/04/05 08:14:04;;;;;;;0.93;0.93;;;4.50;99.90;;;;;;4912546;29;20202;-69
2023/04/05 08:16:32;;;;;;;1.15;1.15;;;4.60;99.90;;;;;;4915761;29;20211;-69
2023/04/05 08:19:00;;;;;;;4.78;1.60;;;4.70;99.90;;;;;;4915321;29;20237;-69
2023/04/05 08:21:27;;;;;;;23.13;14.27;;;4.80;99.90;;;;;;4915215;29;20667;-69
2023/04/05 08:23:54;;;;;;;9.75;4.53;;;4.90;99.90;;;;;;4908101;29;20203;-69
2023/04/05 08:26:21;;;;;;;5.78;2.75;;;5.00;99.90;;;;;;4907522;29;20686;-69
2023/04/05 08:28:48;;;;;;;1.85;1.75;;;5.10;99.90;;;;;;4915541;29;20207;-69
2023/04/05 08:31:15;;;;;;;0.63;0.63;;;5.20;99.90;;;;;;4915517;29;20240;-69
2023/04/05 08:33:41;;;;;;;1.65;0.75;;;5.30;99.90;;;;;;4914681;29;20214;-69
2023/04/05 08:36:11;;;;;;;4.25;0.95;;;5.50;99.90;;;;;;4912868;29;20214;-68
2023/04/05 08:38:38;;;;;;;0.25;0.25;;;5.60;99.90;;;;;;4904231;29;20692;-69
2023/04/05 08:41:09;;;;;;;0.50;0.50;;;5.70;99.90;;;;;;4890893;29;20238;-69
2023/04/05 08:43:50;;;;;;;1.55;0.55;;;5.80;99.90;;;;;;4895516;29;20665;-68
2023/04/05 08:46:18;;;;;;;0.30;0.30;;;5.90;99.90;;;;;;4897405;29;20223;-68
2023/04/05 08:48:45;;;;;;;0.10;0.10;;;5.90;99.90;;;;;;4895330;29;20203;-68
2023/04/05 08:51:13;;;;;;;0.40;0.40;;;6.00;99.90;;;;;;4895536;29;20233;-68
2023/04/05 08:53:40;;;;;;;0.32;0.32;;;6.10;99.90;;;;;;4895670;29;20672;-68
2023/04/05 08:56:07;;;;;;;1.60;1.50;;;6.20;99.90;;;;;;4896744;29;20215;-68
2023/04/05 08:58:37;;;;;;;0.30;0.30;;;6.30;99.90;;;;;;4897449;29;20222;-67
2023/04/05 09:01:05;;;;;;;0.93;0.45;;;6.40;99.90;;;;;;4896950;29;20247;-67
2023/04/05 09:03:36;;;;;;;0.73;0.73;;;6.40;99.90;;;;;;4906044;29;20210;-67
2023/04/05 09:06:07;;;;;;;0.63;0.43;;;6.50;99.90;;;;;;4914802;29;20238;-67
2023/04/05 09:08:35;;;;;;;0.30;0.30;;;6.60;99.90;;;;;;4908914;29;20687;-68
2023/04/05 09:11:02;;;;;;;0.93;0.93;;;6.80;99.90;;;;;;4906829;29;20245;-68
2023/04/05 09:13:29;;;;;;;0.85;0.85;;;6.80;99.90;;;;;;4914233;29;20210;-67
2023/04/05 09:15:56;;;;;;;0.22;0.22;;;6.90;99.90;;;;;;4915264;29;20237;-67
2023/04/05 09:18:23;;;;;;;0.10;0.10;;;7.00;99.70;;;;;;4900976;29;20211;-68
2023/04/05 09:20:50;;;;;;;0.55;0.30;;;7.10;98.80;;;;;;4910691;29;20261;-68
2023/04/05 09:23:17;;;;;;;0.40;0.40;;;7.10;97.90;;;;;;4914414;29;20229;-69
2023/04/05 09:25:46;;;;;;;0.55;0.55;;;7.20;98.80;;;;;;4915371;29;20226;-68
2023/04/05 09:28:13;;;;;;;0.85;0.85;;;7.20;99.90;;;;;;4915180;29;20631;-68
2023/04/05 09:30:46;;;;;;;1.33;1.17;;;7.30;99.90;;;;;;4906758;29;20231;-69
2023/04/05 09:33:18;;;;;;;0.93;0.93;;;7.30;99.90;;;;;;4882290;29;20208;-70
2023/04/05 09:35:49;;;;;;;0.85;0.85;;;7.40;99.90;;;;;;4900987;29;20557;-68
2023/04/05 09:38:16;;;;;;;0.95;0.95;;;7.50;99.90;;;;;;4902142;29;20211;-69
2023/04/05 09:40:46;;;;;;;0.88;0.85;;;7.50;99.90;;;;;;4890616;29;20227;-69
2023/04/05 09:43:15;;;;;;;0.50;0.50;;;7.40;99.90;;;;;;4895418;29;20208;-69
2023/04/05 09:45:44;;;;;;;0.40;0.40;;;7.50;99.90;;;;;;4901402;29;20647;-70
2023/04/05 09:48:12;;;;;;;8.43;1.25;;;7.60;99.90;;;;;;4915003;29;20213;-69
2023/04/05 09:50:39;;;;;;;0.30;0.30;;;7.70;99.90;;;;;;4918178;29;20226;-70
2023/04/05 09:53:07;;;;;;;0.25;0.25;;;7.70;99.60;;;;;;4917532;29;20207;-69
2023/04/05 09:55:34;;;;;;;2.38;0.60;;;7.80;99.60;;;;;;4917432;29;20316;-69
2023/04/05 09:58:03;;;;;;;0.32;0.32;;;7.90;98.70;;;;;;4911353;29;20215;-69
2023/04/05 10:00:31;;;;;;;0.25;0.25;;;7.90;98.40;;;;;;4901836;29;20608;-69
2023/04/05 10:02:57;;;;;;;1.38;1.10;;;8.00;98.00;;;;;;4902939;29;20236;-69
2023/04/05 10:05:26;;;;;;;33.47;13.45;;;8.00;98.40;;;;;;4879708;29;20212;-68
2023/04/05 10:07:54;;;;;;;1.85;1.08;;;8.00;98.80;;;;;;4879769;29;20216;-68
2023/04/05 10:10:22;;;;;;;2.33;1.52;;;8.10;97.50;;;;;;4879992;29;20246;-68
2023/04/05 10:12:50;;;;;;;0.57;0.57;;;8.20;98.30;;;;;;4879593;29;20223;-68
2023/04/05 10:18:03;;;;;;;0.73;0.73;;;8.10;96.00;;;;;;4880301;29;20226;-67
2023/04/05 10:20:34;;;;;;;0.85;0.85;;;8.10;96.40;;;;;;4879547;29;20246;-67
2023/04/05 10:23:07;;;;;;;0.57;0.40;;;8.20;96.40;;;;;;4878947;29;20212;-67
2023/04/05 10:25:47;;;;;;;0.30;0.30;;;8.20;96.70;;;;;;4879217;29;20223;-67
2023/04/05 10:28:22;;;;;;;0.43;0.43;;;8.10;95.70;;;;;;4893793;29;20327;-68
2023/04/05 10:30:55;;;;;;;3.70;0.75;;;8.10;96.40;;;;;;4884343;29;20242;-66
2023/04/05 10:33:30;;;;;;;0.55;0.55;;;8.00;96.30;;;;;;4880310;29;20220;-68
2023/04/05 10:36:05;;;;;;;0.55;0.55;;;7.90;96.70;;;;;;4884152;29;20704;-68
2023/04/05 10:38:49;;;;;;;1.42;1.40;;;7.80;96.50;;;;;;4900302;29;20394;-67
2023/04/05 10:41:16;;;;;;;0.55;0.55;;;7.90;96.70;;;;;;4893727;29;20231;-68
2023/04/05 10:43:45;;;;;;;1.42;1.40;;;8.00;97.00;;;;;;4899592;29;20212;-68
2023/04/05 10:46:18;;;;;;;0.80;0.80;;;8.10;96.80;;;;;;4900816;29;20249;-69
2023/04/05 10:48:52;;;;;;;1.20;1.10;;;8.10;97.00;;;;;;4884898;29;20219;-67
2023/04/05 10:51:20;;;;;;;0.93;0.63;;;8.10;97.40;;;;;;4879959;29;20238;-68
2023/04/05 10:53:47;;;;;;;1.90;1.80;;;8.00;97.40;;;;;;4879884;29;20223;-68
2023/04/05 10:56:13;;;;;;;0.73;0.73;;;8.00;97.20;;;;;;4879783;29;20235;-67
2023/04/05 10:58:41;;;;;;;1.23;1.13;;;8.00;97.00;;;;;;4883254;29;20242;-68
2023/04/05 11:01:09;;;;;;;1.33;1.23;;;7.90;97.00;;;;;;4883487;29;20268;-68
2023/04/05 11:03:47;;;;;;;1.13;1.13;;;8.00;97.50;;;;;;4896891;29;20242;-68
2023/04/05 11:06:21;;;;;;;0.63;0.63;;;8.20;97.80;;;;;;4895710;29;20275;-69
2023/04/05 11:08:51;;;;;;;0.85;0.85;;;8.40;97.70;;;;;;4879292;29;20212;-69
2023/04/05 11:11:18;;;;;;;0.90;0.90;;;8.50;96.70;;;;;;4879932;29;20298;-69
2023/04/05 11:13:49;;;;;;;0.88;0.88;;;8.60;95.70;;;;;;4879893;29;20208;-69
2023/04/05 11:16:16;;;;;;;1.00;1.00;;;8.70;95.30;;;;;;4896456;29;20724;-69
2023/04/05 11:18:47;;;;;;;0.95;0.95;;;8.80;94.80;;;;;;4897354;29;20533;-69
2023/04/05 11:21:21;;;;;;;0.25;0.25;;;8.90;94.80;;;;;;4897157;29;20227;-68
2023/04/05 11:24:02;;;;;;;1.13;0.68;;;9.00;94.60;;;;;;4896712;29;20310;-69
2023/04/05 11:26:33;;;;;;;0.60;0.60;;;9.10;94.30;;;;;;4896568;29;20290;-67
2023/04/05 11:29:00;;;;;;;1.33;1.33;;;9.20;94.30;;;;;;4897021;29;20223;-67
2023/04/05 11:31:27;;;;;;;2.08;1.92;;;9.30;94.40;;;;;;4886012;29;20267;-68
2023/04/05 11:33:58;;;;;;;1.60;1.30;;;9.30;94.30;;;;;;4877751;29;20219;-68
2023/04/05 11:36:36;;;;;;;1.70;1.05;;;9.30;94.70;;;;;;4878495;29;20277;-69
2023/04/05 11:39:25;;;;;;;0.63;0.63;;;9.30;94.70;;;;;;4879743;29;20211;-68
2023/04/05 11:42:03;;;;;;;0.93;0.93;;;9.10;94.10;;;;;;4891910;29;20352;-68
2023/04/05 11:44:43;;;;;;;1.13;1.00;;;8.90;94.00;;;;;;4890137;29;20211;-68
2023/04/05 11:47:10;;;;;;;0.85;0.85;;;8.80;94.00;;;;;;4897227;29;20231;-67
2023/04/05 11:49:39;;;;;;;2.42;0.73;;;8.80;94.40;;;;;;4897141;29;20241;-67
2023/04/05 11:52:17;;;;;;;4.13;1.13;;;8.70;94.30;;;;;;4888941;29;20291;-68
2023/04/05 11:54:48;;;;;;;1.02;1.02;;;8.80;94.40;;;;;;4877716;29;20207;-67
2023/04/05 11:57:16;;;;;;;0.95;0.82;;;8.70;93.80;;;;;;4881189;29;20299;-69
2023/04/05 11:59:43;;;;;;;1.95;1.40;;;8.60;94.20;;;;;;4895835;29;20268;-68
2023/04/05 12:02:10;;;;;;;2.05;0.60;;;8.60;93.70;;;;;;4900020;29;20203;-68
2023/04/05 12:04:39;;;;;;;1.17;0.95;;;8.60;94.00;;;;;;4914886;29;20206;-69
2023/04/05 12:07:16;;;;;;;4.13;3.83;;;8.70;94.40;;;;;;4912360;29;20230;-68
2023/04/05 12:10:01;;;;;;;2.42;2.30;;;8.70;94.70;;;;;;4905550;29;20225;-68
2023/04/05 12:12:27;;;;;;;2.08;1.13;;;8.80;94.30;;;;;;4897400;29;20219;-68
2023/04/05 12:15:00;;;;;;;1.65;1.55;;;9.00;93.50;;;;;;4896384;29;20226;-68
2023/04/05 12:17:41;;;;;;;0.77;0.77;;;9.10;93.70;;;;;;4895634;29;20238;-68
2023/04/05 12:20:10;;;;;;;0.90;0.90;;;9.10;92.90;;;;;;4879870;29;20236;-67
2023/04/05 12:22:38;;;;;;;0.95;0.95;;;8.90;93.10;;;;;;4878249;29;20216;-68
2023/04/05 12:25:05;;;;;;;2.42;0.90;;;8.80;93.20;;;;;;4894725;29;20699;-69
2023/04/05 12:27:32;;;;;;;2.50;1.50;;;9.00;93.50;;;;;;4877309;29;20246;-67
2023/04/05 12:30:10;;;;;;;0.90;0.90;;;9.10;92.90;;;;;;4885565;29;20536;-68
2023/04/05 12:32:40;;;;;;;3.20;3.00;;;9.20;92.80;;;;;;4883198;29;20243;-68
2023/04/05 12:35:11;;;;;;;2.80;1.98;;;9.40;93.20;;;;;;4877141;29;20220;-68
2023/04/05 12:37:39;;;;;;;4.10;2.25;;;9.50;93.00;;;;;;4876942;29;20667;-68
2023/04/05 12:40:07;;;;;;;3.85;3.25;;;9.60;90.80;;;;;;4883742;29;20211;-66
2023/04/05 12:42:35;;;;;;;0.90;0.90;;;9.80;91.60;;;;;;4877416;29;20204;-67
2023/04/05 12:45:04;;;;;;;2.80;0.88;;;9.90;90.70;;;;;;4894855;29;20211;-67
2023/04/05 12:47:33;;;;;;;8.80;5.78;;;10.10;90.20;;;;;;4876743;29;20223;-67
2023/04/05 12:50:12;;;;;;;1.15;1.05;;;10.20;90.60;;;;;;4877208;29;20331;-68
2023/04/05 12:52:39;;;;;;;0.80;0.80;;;10.30;90.00;;;;;;4876499;29;20222;-68
2023/04/05 12:55:15;;;;;;;0.60;0.60;;;10.30;89.30;;;;;;4876262;29;20650;-68
2023/04/05 12:57:42;;;;;;;13.95;6.55;;;10.20;90.00;;;;;;4890078;29;20661;-67
2023/04/05 13:00:11;;;;;;;7.32;4.05;;;10.20;89.30;;;;;;4886542;29;20220;-68
2023/04/05 13:02:37;;;;;;;6.45;5.22;;;10.30;88.90;;;;;;4876617;29;20207;-68
2023/04/05 13:05:05;;;;;;;3.30;2.20;;;10.40;88.30;;;;;;4876360;29;20584;-68
2023/04/05 13:07:33;;;;;;;4.22;3.92;;;10.50;87.40;;;;;;4876369;29;20235;-69
2023/04/05 13:09:59;;;;;;;4.80;3.87;;;10.50;86.30;;;;;;4879908;29;20216;-68
2023/04/05 13:12:26;;;;;;;0.93;0.93;;;10.60;87.00;;;;;;4891779;29;20468;-69
2023/04/05 13:14:53;;;;;;;0.30;0.30;;;10.80;85.70;;;;;;4876436;29;20218;-69
2023/04/05 13:17:20;;;;;;;1.23;1.23;;;10.80;82.10;;;;;;4893935;29;20503;-69
2023/04/05 13:19:46;;;;;;;4.00;2.10;;;10.80;81.60;;;;;;4882028;29;20469;-69
2023/04/05 13:22:13;;;;;;;0.85;0.85;;;10.80;84.60;;;;;;4879893;29;20492;-69
2023/04/05 13:24:41;;;;;;;0.93;0.93;;;10.90;86.00;;;;;;4892145;29;20215;-69
2023/04/05 13:27:08;;;;;;;1.20;1.20;;;10.80;84.10;;;;;;4890237;29;20492;-69
2023/04/05 13:29:34;;;;;;;2.58;0.60;;;10.90;86.40;;;;;;4880701;29;20472;-69
2023/04/05 13:32:01;;;;;;;2.50;2.40;;;10.90;83.80;;;;;;4880069;29;20219;-68
2023/04/05 13:34:28;;;;;;;1.70;1.70;;;10.90;84.00;;;;;;4880029;29;20483;-68
2023/04/05 13:36:55;;;;;;;1.40;1.15;;;11.00;84.50;;;;;;4881228;29;20483;-70
2023/04/05 13:39:21;;;;;;;1.10;1.10;;;11.00;84.00;;;;;;4883402;29;20199;-70
2023/04/05 13:41:49;;;;;;;0.40;0.40;;;11.10;84.80;;;;;;4884562;29;20231;-70
2023/04/05 13:44:16;;;;;;;2.13;1.80;;;11.20;85.10;;;;;;4882886;29;20471;-70
2023/04/05 13:46:43;;;;;;;0.70;0.70;;;11.20;82.80;;;;;;4892909;29;21007;-70
2023/04/05 13:49:09;;;;;;;1.53;1.53;;;11.20;83.40;;;;;;4879863;29;20476;-69
2023/04/05 13:51:40;;;;;;;0.60;0.53;;;11.10;82.20;;;;;;4879982;29;20476;-70
2023/04/05 13:54:07;;;;;;;0.97;0.67;;;11.20;80.60;;;;;;4882859;29;20468;-69
2023/04/05 13:56:33;;;;;;;1.57;1.47;;;11.20;81.60;;;;;;4888254;29;20492;-70
2023/04/05 13:59:02;;;;;;;0.90;0.90;;;11.30;81.60;;;;;;4904408;29;20477;-69
2023/04/05 14:01:28;;;;;;;0.73;0.73;;;11.30;81.30;;;;;;4900268;29;20515;-70
2023/04/05 14:03:56;;;;;;;1.37;1.37;;;11.20;80.60;;;;;;4907207;29;20471;-70
2023/04/05 14:06:22;;;;;;;1.27;0.57;;;11.20;81.80;;;;;;4907236;29;21216;-70
2023/04/05 14:08:53;;;;;;;0.60;0.60;;;11.20;80.10;;;;;;4907297;29;20506;-70
2023/04/05 14:11:21;;;;;;;1.07;1.07;;;11.00;80.40;;;;;;4908423;29;20476;-68
2023/04/05 14:13:48;;;;;;;0.60;0.60;;;11.00;82.60;;;;;;4901314;29;20486;-67
2023/04/05 14:16:16;;;;;;;1.03;1.00;;;11.00;80.80;;;;;;4888712;29;20587;-67
2023/04/05 14:18:43;;;;;;;1.40;1.30;;;11.00;81.60;;;;;;4892424;29;20475;-69
2023/04/05 14:21:10;;;;;;;2.77;1.30;;;11.00;80.80;;;;;;4890643;29;20490;-69
2023/04/05 14:23:37;;;;;;;1.23;0.60;;;11.10;82.20;;;;;;4892370;29;20482;-69
2023/04/05 14:26:04;;;;;;;0.87;0.87;;;11.10;80.90;;;;;;4892028;29;20483;-68
2023/04/05 14:28:31;;;;;;;1.23;1.23;;;11.10;80.80;;;;;;4899733;29;20527;-69
2023/04/05 14:30:58;;;;;;;0.77;0.77;;;11.00;79.30;;;;;;4905903;29;20936;-69
2023/04/05 14:33:26;;;;;;;1.60;1.03;;;11.00;79.80;;;;;;4895967;29;20471;-71
2023/04/05 14:35:53;;;;;;;0.40;0.40;;;11.00;81.30;;;;;;4903427;29;20491;-69
2023/04/05 14:38:20;;;;;;;0.67;0.67;;;11.10;80.20;;;;;;4894077;29;20552;-67
2023/04/05 14:40:47;;;;;;;1.60;1.17;;;11.00;80.90;;;;;;4897598;29;20566;-68
2023/04/05 14:43:14;;;;;;;0.70;0.67;;;11.00;80.00;;;;;;4899938;29;20475;-68
2023/04/05 14:45:41;;;;;;;0.93;0.93;;;11.00;81.00;;;;;;4903593;29;20495;-69
2023/04/05 14:48:07;;;;;;;0.70;0.70;;;10.90;80.60;;;;;;4891031;29;20975;-64
2023/04/05 14:50:35;;;;;;;3.40;1.30;;;10.90;79.30;;;;;;4890954;29;20482;-69
2023/04/05 14:53:02;;;;;;;1.40;1.30;;;10.80;78.80;;;;;;4902196;29;20947;-70
2023/04/05 14:55:29;;;;;;;0.70;0.70;;;10.70;80.10;;;;;;4900313;29;20482;-70
2023/04/05 14:57:56;;;;;;;0.90;0.90;;;10.70;79.70;;;;;;4897590;29;20471;-70
2023/04/05 15:00:24;;;;;;;1.30;1.30;;;10.70;81.00;;;;;;4888581;29;20464;-69
2023/04/05 15:02:50;;;;;;;0.80;0.80;;;10.70;81.80;;;;;;4880314;29;20242;-70
2023/04/05 15:05:18;;;;;;;0.32;0.32;;;10.60;80.30;;;;;;4882161;29;20211;-67
2023/04/05 15:07:46;;;;;;;0.60;0.60;;;10.50;80.50;;;;;;4892755;29;20228;-68
2023/04/05 15:10:13;;;;;;;0.60;0.60;;;10.50;81.10;;;;;;4889837;29;20211;-68
2023/04/05 15:12:39;;;;;;;1.75;1.10;;;10.50;82.00;;;;;;4894345;29;20217;-67
2023/04/05 15:15:07;;;;;;;6.47;0.90;;;10.60;82.90;;;;;;4890318;29;20224;-67
2023/04/05 15:17:34;;;;;;;1.02;1.02;;;10.60;81.90;;;;;;4896461;29;20351;-67
2023/04/05 15:20:01;;;;;;;1.33;1.23;;;10.60;83.20;;;;;;4897307;29;20576;-69
2023/04/05 15:22:27;;;;;;;2.70;1.85;;;10.50;82.70;;;;;;4896658;29;20261;-67
2023/04/05 15:24:57;;;;;;;0.82;0.82;;;10.50;83.30;;;;;;4895628;29;20225;-67
2023/04/05 15:27:24;;;;;;;3.15;0.77;;;10.50;83.40;;;;;;4888720;29;20286;-67
2023/04/05 15:29:51;;;;;;;1.20;1.10;;;10.40;84.00;;;;;;4882364;29;20555;-68
2023/04/05 15:32:18;;;;;;;1.42;1.33;;;10.40;84.40;;;;;;4895923;29;20214;-68
2023/04/05 15:34:45;;;;;;;0.80;0.80;;;10.30;85.10;;;;;;4895969;29;20215;-68
2023/04/05 15:37:11;;;;;;;1.77;1.27;;;10.30;86.20;;;;;;4894677;29;20227;-69
2023/04/05 15:39:38;;;;;;;1.20;1.10;;;10.30;86.20;;;;;;4882231;29;20585;-68
2023/04/05 15:42:06;;;;;;;1.40;1.40;;;10.20;85.00;;;;;;4883620;29;20228;-68
2023/04/05 15:44:33;;;;;;;3.20;2.00;;;10.00;85.80;;;;;;4890551;29;20515;-68
2023/04/05 15:47:00;;;;;;;1.83;1.73;;;10.00;87.20;;;;;;4889401;29;20235;-69
2023/04/05 15:49:26;;;;;;;1.13;1.02;;;10.00;86.90;;;;;;4887100;29;20364;-67
2023/04/05 15:51:53;;;;;;;1.10;1.10;;;9.90;88.30;;;;;;4889733;29;20227;-67
2023/04/05 15:54:20;;;;;;;1.90;1.80;;;10.00;86.80;;;;;;4888313;29;20215;-68
2023/04/05 15:56:47;;;;;;;2.47;1.90;;;10.00;87.10;;;;;;4888761;29;20644;-69
2023/04/05 15:59:15;;;;;;;3.20;2.35;;;10.10;88.20;;;;;;4886948;29;20207;-69
2023/04/05 16:01:42;;;;;;;1.08;1.08;;;10.00;88.50;;;;;;4895792;29;20231;-70
2023/04/05 16:04:09;;;;;;;3.55;1.40;;;10.10;88.40;;;;;;4885629;29;20581;-69
2023/04/05 16:06:36;;;;;;;2.20;1.70;;;10.10;88.30;;;;;;4895031;29;20235;-68
2023/04/05 16:09:02;;;;;;;3.03;0.95;;;10.00;88.40;;;;;;4889100;29;20555;-69
2023/04/05 16:11:29;;;;;;;1.65;1.55;;;10.00;89.60;;;;;;4892675;29;20203;-69
2023/04/05 16:13:56;;;;;;;1.15;1.00;;;10.00;90.10;;;;;;4882650;29;20662;-69
2023/04/05 16:16:24;;;;;;;1.85;1.85;;;10.00;90.00;;;;;;4885696;29;20536;-69
2023/04/05 16:18:51;;;;;;;1.67;1.58;;;9.90;90.30;;;;;;4889973;29;20606;-69
2023/04/05 16:21:18;;;;;;;1.40;1.40;;;9.90;90.70;;;;;;4876749;29;20214;-69
2023/04/05 16:23:45;;;;;;;3.55;1.65;;;9.90;90.70;;;;;;4886738;29;20203;-70
2023/04/05 16:26:12;;;;;;;1.42;1.33;;;9.90;90.70;;;;;;4887252;29;20231;-69
2023/04/05 16:28:40;;;;;;;1.30;1.25;;;9.80;90.70;;;;;;4937953;23;20244;-69
2023/04/05 16:31:06;;;;;;;2.40;2.30;;;9.80;90.50;;;;;;4919392;29;20260;-69
2023/04/05 16:33:34;;;;;;;2.75;2.65;;;9.80;91.00;;;;;;4917999;29;20676;-69
2023/04/05 16:36:02;;;;;;;2.55;2.45;;;9.80;90.80;;;;;;4918335;29;20268;-70
2023/04/05 16:38:29;;;;;;;2.42;2.03;;;9.70;90.30;;;;;;4922110;29;20238;-70
2023/04/05 16:40:57;;;;;;;1.30;1.30;;;9.70;90.50;;;;;;4917064;29;20210;-69
2023/04/05 16:43:24;;;;;;;2.22;2.13;;;9.60;91.30;;;;;;4918351;29;20236;-69
2023/04/05 16:45:50;;;;;;;1.77;1.77;;;9.60;91.20;;;;;;4914402;29;20214;-69
2023/04/05 16:48:17;;;;;;;2.45;1.80;;;9.60;91.80;;;;;;4919694;29;20241;-68
2023/04/05 16:50:45;;;;;;;2.65;2.55;;;9.60;91.30;;;;;;4922527;29;20226;-69
2023/04/05 16:53:13;;;;;;;3.30;2.42;;;9.50;91.50;;;;;;4911338;29;20207;-69
2023/04/05 16:55:40;;;;;;;8.20;2.10;;;9.40;91.60;;;;;;4933273;29;20213;-69
2023/04/05 16:58:07;;;;;;;2.58;2.15;;;9.40;91.70;;;;;;4933857;29;20598;-68
2023/04/05 17:00:34;;;;;;;3.25;2.35;;;9.40;92.00;;;;;;4914569;29;20202;-68